sensor_id;sensor_type;location;lat;lon;timestamp;P1;durP1;ratioP1;P2;durP2;ratioP2
71902;SDS011;59778;50.310;18.780;2024-03-22T00:09:29;50.23;;;21.40;;
71902;SDS011;59778;50.310;18.780;2024-03-22T00:24:51;48.67;;;20.50;;
71902;SDS011;59778;50.310;18.780;2024-03-22T00:40:12;36.90;;;18.70;;
71902;SDS011;59778;50.310;18.780;2024-03-22T00:55:33;35.97;;;17.30;;
71902;SDS011;59778;50.310;18.780;2024-03-22T01:10:54;31.70;;;15.03;;
71902;SDS011;59778;50.310;18.780;2024-03-22T01:26:15;30.33;;;15.07;;
71902;SDS011;59778;50.310;18.780;2024-03-22T01:41:36;29.77;;;13.93;;
71902;SDS011;59778;50.310;18.780;2024-03-22T01:56:57;25.37;;;11.63;;
71902;SDS011;59778;50.310;18.780;2024-03-22T02:12:19;26.13;;;12.37;;
71902;SDS011;59778;50.310;18.780;2024-03-22T02:27:40;23.83;;;12.70;;
71902;SDS011;59778;50.310;18.780;2024-03-22T02:43:02;21.90;;;11.03;;
71902;SDS011;59778;50.310;18.780;2024-03-22T02:58:23;30.87;;;14.20;;
71902;SDS011;59778;50.310;18.780;2024-03-22T03:13:44;25.17;;;12.13;;
71902;SDS011;59778;50.310;18.780;2024-03-22T03:29:05;26.80;;;13.17;;
71902;SDS011;59778;50.310;18.780;2024-03-22T03:44:26;26.13;;;12.23;;
71902;SDS011;59778;50.310;18.780;2024-03-22T03:59:47;28.20;;;13.20;;
71902;SDS011;59778;50.310;18.780;2024-03-22T04:15:08;22.97;;;11.77;;
71902;SDS011;59778;50.310;18.780;2024-03-22T04:30:30;26.40;;;11.90;;
71902;SDS011;59778;50.310;18.780;2024-03-22T04:45:52;30.27;;;12.60;;
71902;SDS011;59778;50.310;18.780;2024-03-22T05:01:13;25.97;;;11.30;;
71902;SDS011;59778;50.310;18.780;2024-03-22T05:16:35;22.93;;;9.43;;
71902;SDS011;59778;50.310;18.780;2024-03-22T05:31:56;32.03;;;8.77;;
71902;SDS011;59778;50.310;18.780;2024-03-22T05:47:18;15.87;;;6.80;;
71902;SDS011;59778;50.310;18.780;2024-03-22T06:02:39;14.07;;;5.93;;
71902;SDS011;59778;50.310;18.780;2024-03-22T06:18:00;18.20;;;6.77;;
71902;SDS011;59778;50.310;18.780;2024-03-22T06:33:21;17.17;;;6.27;;
71902;SDS011;59778;50.310;18.780;2024-03-22T06:48:43;15.00;;;7.37;;
71902;SDS011;59778;50.310;18.780;2024-03-22T07:04:04;17.20;;;7.10;;
71902;SDS011;59778;50.310;18.780;2024-03-22T07:19:25;18.87;;;7.87;;
71902;SDS011;59778;50.310;18.780;2024-03-22T07:34:46;14.90;;;6.40;;
71902;SDS011;59778;50.310;18.780;2024-03-22T07:50:07;16.33;;;6.83;;
71902;SDS011;59778;50.310;18.780;2024-03-22T08:05:29;16.37;;;6.87;;
71902;SDS011;59778;50.310;18.780;2024-03-22T08:20:50;16.87;;;6.87;;
71902;SDS011;59778;50.310;18.780;2024-03-22T08:36:12;18.23;;;7.33;;
71902;SDS011;59778;50.310;18.780;2024-03-22T08:51:33;16.53;;;6.93;;
71902;SDS011;59778;50.310;18.780;2024-03-22T09:06:54;18.60;;;8.13;;
71902;SDS011;59778;50.310;18.780;2024-03-22T09:22:15;12.60;;;5.03;;
71902;SDS011;59778;50.310;18.780;2024-03-22T09:37:36;13.63;;;4.57;;
71902;SDS011;59778;50.310;18.780;2024-03-22T09:52:57;11.23;;;4.80;;
71902;SDS011;59778;50.310;18.780;2024-03-22T10:08:19;13.53;;;4.60;;
71902;SDS011;59778;50.310;18.780;2024-03-22T10:23:40;14.23;;;5.67;;
71902;SDS011;59778;50.310;18.780;2024-03-22T10:39:01;12.63;;;5.27;;
71902;SDS011;59778;50.310;18.780;2024-03-22T10:54:24;14.47;;;6.13;;
71902;SDS011;59778;50.310;18.780;2024-03-22T11:09:51;13.67;;;5.30;;
71902;SDS011;59778;50.310;18.780;2024-03-22T11:25:12;13.40;;;6.73;;
71902;SDS011;59778;50.310;18.780;2024-03-22T11:40:34;15.93;;;6.23;;
71902;SDS011;59778;50.310;18.780;2024-03-22T11:55:55;19.83;;;8.20;;
71902;SDS011;59778;50.310;18.780;2024-03-22T12:11:16;14.00;;;6.70;;
71902;SDS011;59778;50.310;18.780;2024-03-22T12:26:37;14.37;;;5.93;;
71902;SDS011;59778;50.310;18.780;2024-03-22T12:41:58;14.47;;;6.80;;
71902;SDS011;59778;50.310;18.780;2024-03-22T12:57:20;13.17;;;6.13;;
71902;SDS011;59778;50.310;18.780;2024-03-22T13:12:41;17.07;;;7.00;;
71902;SDS011;59778;50.310;18.780;2024-03-22T13:28:03;18.37;;;8.73;;
71902;SDS011;59778;50.310;18.780;2024-03-22T13:43:27;17.20;;;8.40;;
71902;SDS011;59778;50.310;18.780;2024-03-22T13:58:48;19.57;;;9.63;;
71902;SDS011;59778;50.310;18.780;2024-03-22T14:14:10;17.00;;;8.40;;
71902;SDS011;59778;50.310;18.780;2024-03-22T14:29:34;20.17;;;9.90;;
71902;SDS011;59778;50.310;18.780;2024-03-22T14:44:55;19.30;;;9.37;;
71902;SDS011;59778;50.310;18.780;2024-03-22T15:00:17;23.53;;;10.33;;
71902;SDS011;59778;50.310;18.780;2024-03-22T15:15:38;24.77;;;10.13;;
71902;SDS011;59778;50.310;18.780;2024-03-22T15:30:59;20.97;;;9.57;;
71902;SDS011;59778;50.310;18.780;2024-03-22T15:46:21;21.93;;;10.10;;
71902;SDS011;59778;50.310;18.780;2024-03-22T16:01:42;24.30;;;9.90;;
71902;SDS011;59778;50.310;18.780;2024-03-22T16:17:04;25.60;;;11.70;;
71902;SDS011;59778;50.310;18.780;2024-03-22T16:32:28;85.37;;;28.50;;
71902;SDS011;59778;50.310;18.780;2024-03-22T16:47:52;33.27;;;15.90;;
71902;SDS011;59778;50.310;18.780;2024-03-22T17:03:14;33.93;;;15.53;;
71902;SDS011;59778;50.310;18.780;2024-03-22T17:18:35;41.87;;;16.73;;
71902;SDS011;59778;50.310;18.780;2024-03-22T17:33:56;43.57;;;19.40;;
71902;SDS011;59778;50.310;18.780;2024-03-22T17:49:17;73.67;;;29.00;;
71902;SDS011;59778;50.310;18.780;2024-03-22T18:04:39;60.60;;;25.60;;
71902;SDS011;59778;50.310;18.780;2024-03-22T18:20:00;46.83;;;21.83;;
71902;SDS011;59778;50.310;18.780;2024-03-22T18:35:21;51.33;;;20.33;;
71902;SDS011;59778;50.310;18.780;2024-03-22T18:50:43;64.17;;;23.63;;
71902;SDS011;59778;50.310;18.780;2024-03-22T19:06:06;40.87;;;14.63;;
71902;SDS011;59778;50.310;18.780;2024-03-22T19:21:28;26.43;;;11.07;;
71902;SDS011;59778;50.310;18.780;2024-03-22T19:36:49;27.27;;;10.87;;
71902;SDS011;59778;50.310;18.780;2024-03-22T19:52:11;27.50;;;11.73;;
71902;SDS011;59778;50.310;18.780;2024-03-22T20:07:35;42.60;;;14.80;;
71902;SDS011;59778;50.310;18.780;2024-03-22T20:22:57;52.53;;;15.57;;
